sensor_id;sensor_type;location;lat;lon;timestamp;pressure;altitude;pressure_sealevel;temperature;humidity
35248;BME280;21380;52.194;20.520;2022-10-16T00:00:56;100554.03;;;19.97;72.13
35248;BME280;21380;52.194;20.520;2022-10-16T00:03:38;100553.16;;;20.00;72.41
35248;BME280;21380;52.194;20.520;2022-10-16T00:06:06;100554.03;;;19.96;72.34
35248;BME280;21380;52.194;20.520;2022-10-16T00:08:33;100555.78;;;19.98;72.31
35248;BME280;21380;52.194;20.520;2022-10-16T00:11:20;100549.63;;;19.98;72.39
35248;BME280;21380;52.194;20.520;2022-10-16T00:13:48;100547.88;;;19.97;72.42
35248;BME280;21380;52.194;20.520;2022-10-16T00:16:15;100554.03;;;19.97;71.84
35248;BME280;21380;52.194;20.520;2022-10-16T00:18:41;100541.75;;;19.91;72.34
35248;BME280;21380;52.194;20.520;2022-10-16T00:21:10;100547.88;;;19.93;72.07
35248;BME280;21380;52.194;20.520;2022-10-16T00:23:37;100560.97;;;19.95;71.88
35248;BME280;21380;52.194;20.520;2022-10-16T00:26:05;100559.22;;;19.94;72.36
35248;BME280;21380;52.194;20.520;2022-10-16T00:28:33;100562.72;;;19.95;72.24
35248;BME280;21380;52.194;20.520;2022-10-16T00:30:59;100560.09;;;19.93;71.90
35248;BME280;21380;52.194;20.520;2022-10-16T00:33:25;100558.38;;;19.93;72.02
35248;BME280;21380;52.194;20.520;2022-10-16T00:35:50;100567.94;;;19.93;72.03
35248;BME280;21380;52.194;20.520;2022-10-16T00:38:16;100573.19;;;19.93;72.04
35248;BME280;21380;52.194;20.520;2022-10-16T00:40:43;100567.09;;;19.92;72.33
35248;BME280;21380;52.194;20.520;2022-10-16T00:43:33;100567.09;;;19.92;72.21
35248;BME280;21380;52.194;20.520;2022-10-16T00:46:03;100570.56;;;19.91;72.22
35248;BME280;21380;52.194;20.520;2022-10-16T00:48:30;100571.41;;;19.90;71.85
35248;BME280;21380;52.194;20.520;2022-10-16T00:50:57;100566.19;;;19.89;72.02
35248;BME280;21380;52.194;20.520;2022-10-16T00:53:24;100569.69;;;19.89;71.90
35248;BME280;21380;52.194;20.520;2022-10-16T00:55:51;100567.94;;;19.88;71.87
35248;BME280;21380;52.194;20.520;2022-10-16T00:58:17;100572.31;;;19.89;72.00
35248;BME280;21380;52.194;20.520;2022-10-16T01:00:43;100581.03;;;19.88;71.71
35248;BME280;21380;52.194;20.520;2022-10-16T01:03:31;100580.13;;;19.88;71.93
35248;BME280;21380;52.194;20.520;2022-10-16T01:17:17;100589.72;;;19.84;72.23
35248;BME280;21380;52.194;20.520;2022-10-16T01:20:08;100607.19;;;19.85;72.08
35248;BME280;21380;52.194;20.520;2022-10-16T01:31:18;100594.94;;;19.83;72.17
35248;BME280;21380;52.194;20.520;2022-10-16T01:33:51;100599.28;;;19.82;71.82
35248;BME280;21380;52.194;20.520;2022-10-16T01:36:26;100581.81;;;19.75;72.28
35248;BME280;21380;52.194;20.520;2022-10-16T01:38:54;100596.69;;;19.82;71.67
35248;BME280;21380;52.194;20.520;2022-10-16T01:41:26;100597.53;;;19.81;71.56
35248;BME280;21380;52.194;20.520;2022-10-16T01:44:03;100581.81;;;19.76;71.66
35248;BME280;21380;52.194;20.520;2022-10-16T01:46:31;100581.84;;;19.80;72.17
35248;BME280;21380;52.194;20.520;2022-10-16T01:49:00;100589.66;;;19.76;72.16
35248;BME280;21380;52.194;20.520;2022-10-16T01:51:27;100583.56;;;19.79;72.24
35248;BME280;21380;52.194;20.520;2022-10-16T01:53:56;100593.16;;;19.80;72.25
35248;BME280;21380;52.194;20.520;2022-10-16T01:56:24;100585.28;;;19.75;71.77
35248;BME280;21380;52.194;20.520;2022-10-16T01:58:54;100587.94;;;19.79;72.00
35248;BME280;21380;52.194;20.520;2022-10-16T02:01:23;100587.94;;;19.77;71.97
35248;BME280;21380;52.194;20.520;2022-10-16T02:03:52;100582.66;;;19.75;72.21
35248;BME280;21380;52.194;20.520;2022-10-16T02:06:20;100598.41;;;19.77;71.60
35248;BME280;21380;52.194;20.520;2022-10-16T02:08:46;100593.16;;;19.77;71.65
35248;BME280;21380;52.194;20.520;2022-10-16T02:11:12;100589.66;;;19.76;71.84
35248;BME280;21380;52.194;20.520;2022-10-16T02:13:53;100590.50;;;19.75;71.73
35248;BME280;21380;52.194;20.520;2022-10-16T02:16:32;100588.78;;;19.76;71.77
35248;BME280;21380;52.194;20.520;2022-10-16T02:18:58;100592.25;;;19.75;71.58
35248;BME280;21380;52.194;20.520;2022-10-16T02:21:29;100598.38;;;19.75;71.83
35248;BME280;21380;52.194;20.520;2022-10-16T02:29:05;100606.22;;;19.71;71.82
35248;BME280;21380;52.194;20.520;2022-10-16T02:31:35;100609.69;;;19.73;71.78
35248;BME280;21380;52.194;20.520;2022-10-16T02:34:05;100595.72;;;19.66;71.78
35248;BME280;21380;52.194;20.520;2022-10-16T02:36:32;100605.34;;;19.72;71.65
35248;BME280;21380;52.194;20.520;2022-10-16T02:39:00;100601.84;;;19.71;71.77
35248;BME280;21380;52.194;20.520;2022-10-16T02:41:27;100607.06;;;19.71;71.42
35248;BME280;21380;52.194;20.520;2022-10-16T02:43:53;100611.44;;;19.69;71.72
35248;BME280;21380;52.194;20.520;2022-10-16T02:46:20;100612.31;;;19.70;71.64
35248;BME280;21380;52.194;20.520;2022-10-16T02:48:46;100612.31;;;19.70;71.65
35248;BME280;21380;52.194;20.520;2022-10-16T02:51:13;100616.66;;;19.68;71.78
35248;BME280;21380;52.194;20.520;2022-10-16T02:53:39;100622.78;;;19.68;71.75
35248;BME280;21380;52.194;20.520;2022-10-16T02:56:05;100613.16;;;19.69;71.82
35248;BME280;21380;52.194;20.520;2022-10-16T02:58:30;100612.31;;;19.68;71.81
35248;BME280;21380;52.194;20.520;2022-10-16T03:00:56;100608.78;;;19.68;71.92
35248;BME280;21380;52.194;20.520;2022-10-16T03:03:22;100617.50;;;19.67;71.65
35248;BME280;21380;52.194;20.520;2022-10-16T03:09:29;100618.38;;;19.64;71.71
35248;BME280;21380;52.194;20.520;2022-10-16T03:11:55;100614.88;;;19.62;71.72
35248;BME280;21380;52.194;20.520;2022-10-16T03:14:21;100617.47;;;19.59;71.49
35248;BME280;21380;52.194;20.520;2022-10-16T03:16:47;100611.38;;;19.57;71.30
35248;BME280;21380;52.194;20.520;2022-10-16T03:19:12;100636.69;;;19.64;71.18
35248;BME280;21380;52.194;20.520;2022-10-16T03:21:38;100630.59;;;19.62;71.28
35248;BME280;21380;52.194;20.520;2022-10-16T03:24:05;100635.81;;;19.64;70.93
35248;BME280;21380;52.194;20.520;2022-10-16T03:26:31;100636.69;;;19.63;71.30
35248;BME280;21380;52.194;20.520;2022-10-16T03:28:56;100632.31;;;19.60;70.82
35248;BME280;21380;52.194;20.520;2022-10-16T03:31:22;100640.16;;;19.61;71.04
35248;BME280;21380;52.194;20.520;2022-10-16T03:33:48;100639.28;;;19.61;71.10
35248;BME280;21380;52.194;20.520;2022-10-16T03:36:14;100637.53;;;19.60;70.85
35248;BME280;21380;52.194;20.520;2022-10-16T03:38:40;100639.25;;;19.56;70.87
35248;BME280;21380;52.194;20.520;2022-10-16T03:41:06;100635.78;;;19.59;70.84
35248;BME280;21380;52.194;20.520;2022-10-16T03:43:33;100633.16;;;19.56;70.61
35248;BME280;21380;52.194;20.520;2022-10-16T03:45:59;100643.63;;;19.57;70.71
35248;BME280;21380;52.194;20.520;2022-10-16T03:48:25;100644.50;;;19.56;71.08
35248;BME280;21380;52.194;20.520;2022-10-16T03:50:51;100645.34;;;19.55;70.61
35248;BME280;21380;52.194;20.520;2022-10-16T03:53:17;100648.84;;;19.56;70.91
35248;BME280;21380;52.194;20.520;2022-10-16T03:55:43;100653.19;;;19.55;70.55
35248;BME280;21380;52.194;20.520;2022-10-16T03:58:10;100647.97;;;19.55;70.64
35248;BME280;21380;52.194;20.520;2022-10-16T04:00:41;100642.72;;;19.54;70.64
35248;BME280;21380;52.194;20.520;2022-10-16T04:03:06;100642.72;;;19.54;70.52
35248;BME280;21380;52.194;20.520;2022-10-16T04:05:33;100650.56;;;19.54;70.51
35248;BME280;21380;52.194;20.520;2022-10-16T04:07:59;100645.34;;;19.51;70.43
35248;BME280;21380;52.194;20.520;2022-10-16T04:10:25;100652.28;;;19.50;70.47
35248;BME280;21380;52.194;20.520;2022-10-16T04:12:51;100661.03;;;19.52;70.79
35248;BME280;21380;52.194;20.520;2022-10-16T04:15:17;100658.41;;;19.51;70.77
35248;BME280;21380;52.194;20.520;2022-10-16T04:17:43;100668.00;;;19.50;70.74
35248;BME280;21380;52.194;20.520;2022-10-16T04:20:09;100674.97;;;19.51;70.95
35248;BME280;21380;52.194;20.520;2022-10-16T04:22:34;100667.97;;;19.49;70.66
35248;BME280;21380;52.194;20.520;2022-10-16T04:25:00;100669.75;;;19.50;70.55
35248;BME280;21380;52.194;20.520;2022-10-16T04:27:26;100660.13;;;19.49;70.92
35248;BME280;21380;52.194;20.520;2022-10-16T04:29:52;100665.38;;;19.49;70.72
35248;BME280;21380;52.194;20.520;2022-10-16T04:32:18;100672.34;;;19.48;70.72
35248;BME280;21380;52.194;20.520;2022-10-16T04:34:44;100661.88;;;19.48;70.57
35248;BME280;21380;52.194;20.520;2022-10-16T04:37:10;100665.38;;;19.49;71.00
35248;BME280;21380;52.194;20.520;2022-10-16T04:39:36;100654.00;;;19.42;71.29
35248;BME280;21380;52.194;20.520;2022-10-16T04:42:01;100664.47;;;19.45;70.92
35248;BME280;21380;52.194;20.520;2022-10-16T04:44:28;100676.69;;;19.48;70.75
35248;BME280;21380;52.194;20.520;2022-10-16T04:46:54;100684.53;;;19.48;70.57
35248;BME280;21380;52.194;20.520;2022-10-16T04:49:20;100689.78;;;19.46;70.72
35248;BME280;21380;52.194;20.520;2022-10-16T04:51:45;100684.53;;;19.48;70.90
35248;BME280;21380;52.194;20.520;2022-10-16T04:54:11;100695.88;;;19.47;70.66
35248;BME280;21380;52.194;20.520;2022-10-16T04:56:37;100673.16;;;19.39;71.18
35248;BME280;21380;52.194;20.520;2022-10-16T04:59:11;100686.25;;;19.44;70.89
35248;BME280;21380;52.194;20.520;2022-10-16T05:01:37;100678.41;;;19.41;71.32
35248;BME280;21380;52.194;20.520;2022-10-16T05:04:04;100693.25;;;19.45;70.56
35248;BME280;21380;52.194;20.520;2022-10-16T05:06:30;100681.91;;;19.43;71.01
35248;BME280;21380;52.194;20.520;2022-10-16T05:08:56;100686.28;;;19.46;70.84
35248;BME280;21380;52.194;20.520;2022-10-16T05:11:21;100679.28;;;19.43;71.54
35248;BME280;21380;52.194;20.520;2022-10-16T05:13:47;100681.00;;;19.42;71.07
35248;BME280;21380;52.194;20.520;2022-10-16T05:16:13;100679.25;;;19.40;71.26
35248;BME280;21380;52.194;20.520;2022-10-16T05:18:39;100688.00;;;19.45;70.77
35248;BME280;21380;52.194;20.520;2022-10-16T05:21:05;100684.53;;;19.44;71.06
35248;BME280;21380;52.194;20.520;2022-10-16T05:23:32;100688.00;;;19.45;71.50
35248;BME280;21380;52.194;20.520;2022-10-16T05:25:58;100680.16;;;19.43;71.38
35248;BME280;21380;52.194;20.520;2022-10-16T05:28:26;100687.16;;;19.43;70.87
35248;BME280;21380;52.194;20.520;2022-10-16T05:30:53;100691.47;;;19.44;71.66
35248;BME280;21380;52.194;20.520;2022-10-16T05:33:23;100688.00;;;19.43;71.24
35248;BME280;21380;52.194;20.520;2022-10-16T05:35:49;100693.25;;;19.45;71.55
35248;BME280;21380;52.194;20.520;2022-10-16T05:38:16;100690.63;;;19.45;71.39
35248;BME280;21380;52.194;20.520;2022-10-16T05:40:42;100699.34;;;19.44;71.47
35248;BME280;21380;52.194;20.520;2022-10-16T05:43:08;100700.22;;;19.46;71.45
35248;BME280;21380;52.194;20.520;2022-10-16T05:45:34;100703.72;;;19.47;71.62
35248;BME280;21380;52.194;20.520;2022-10-16T05:48:00;100698.47;;;19.47;71.39
35248;BME280;21380;52.194;20.520;2022-10-16T05:50:26;100706.31;;;19.47;71.45
35248;BME280;21380;52.194;20.520;2022-10-16T05:52:52;100712.47;;;19.47;71.58
35248;BME280;21380;52.194;20.520;2022-10-16T05:55:18;100715.06;;;19.47;71.61
35248;BME280;21380;52.194;20.520;2022-10-16T05:57:44;100712.47;;;19.47;71.66
35248;BME280;21380;52.194;20.520;2022-10-16T06:00:10;100701.88;;;19.36;71.62
35248;BME280;21380;52.194;20.520;2022-10-16T06:02:36;100720.31;;;19.47;71.55
35248;BME280;21380;52.194;20.520;2022-10-16T06:05:02;100726.41;;;19.46;71.69
35248;BME280;21380;52.194;20.520;2022-10-16T06:07:28;100732.50;;;19.47;71.86
35248;BME280;21380;52.194;20.520;2022-10-16T06:09:54;100723.78;;;19.46;71.87
35248;BME280;21380;52.194;20.520;2022-10-16T06:12:20;100721.16;;;19.48;71.76
35248;BME280;21380;52.194;20.520;2022-10-16T06:14:46;100720.31;;;19.46;71.87
35248;BME280;21380;52.194;20.520;2022-10-16T06:17:15;100726.41;;;19.48;71.79
35248;BME280;21380;52.194;20.520;2022-10-16T06:19:41;100724.69;;;19.50;71.74
35248;BME280;21380;52.194;20.520;2022-10-16T06:22:07;100715.94;;;19.48;71.95
35248;BME280;21380;52.194;20.520;2022-10-16T06:24:33;100710.69;;;19.44;72.02
35248;BME280;21380;52.194;20.520;2022-10-16T06:26:58;100721.16;;;19.49;71.87
35248;BME280;21380;52.194;20.520;2022-10-16T06:29:24;100723.78;;;19.46;72.06
35248;BME280;21380;52.194;20.520;2022-10-16T06:31:50;100729.03;;;19.48;71.73
35248;BME280;21380;52.194;20.520;2022-10-16T06:34:16;100731.69;;;19.51;71.96
35248;BME280;21380;52.194;20.520;2022-10-16T06:36:42;100740.38;;;19.51;71.93
35248;BME280;21380;52.194;20.520;2022-10-16T06:39:08;100748.25;;;19.51;71.90
35248;BME280;21380;52.194;20.520;2022-10-16T06:41:35;100743.00;;;19.50;72.04
35248;BME280;21380;52.194;20.520;2022-10-16T06:44:01;100749.13;;;19.52;72.18
35248;BME280;21380;52.194;20.520;2022-10-16T06:46:27;100758.72;;;19.53;72.15
35248;BME280;21380;52.194;20.520;2022-10-16T06:48:53;100756.09;;;19.53;72.16
35248;BME280;21380;52.194;20.520;2022-10-16T06:51:21;100756.94;;;19.50;72.41
35248;BME280;21380;52.194;20.520;2022-10-16T06:53:51;100756.09;;;19.53;72.23
35248;BME280;21380;52.194;20.520;2022-10-16T06:56:21;100741.25;;;19.47;72.32
35248;BME280;21380;52.194;20.520;2022-10-16T06:58:48;100747.38;;;19.54;72.25
35248;BME280;21380;52.194;20.520;2022-10-16T07:01:15;100728.16;;;19.50;72.20
35248;BME280;21380;52.194;20.520;2022-10-16T07:03:42;100718.59;;;19.52;72.41
35248;BME280;21380;52.194;20.520;2022-10-16T07:06:10;100736.84;;;19.44;72.53
35248;BME280;21380;52.194;20.520;2022-10-16T07:08:39;100751.75;;;19.55;72.27
35248;BME280;21380;52.194;20.520;2022-10-16T07:11:07;100744.75;;;19.52;72.36
35248;BME280;21380;52.194;20.520;2022-10-16T07:13:37;100768.31;;;19.55;72.33
35248;BME280;21380;52.194;20.520;2022-10-16T07:16:05;100766.59;;;19.56;72.23
35248;BME280;21380;52.194;20.520;2022-10-16T07:18:32;100761.38;;;19.56;72.21
35248;BME280;21380;52.194;20.520;2022-10-16T07:21:10;100752.66;;;19.57;72.39
35248;BME280;21380;52.194;20.520;2022-10-16T07:23:36;100745.63;;;19.53;72.26
35248;BME280;21380;52.194;20.520;2022-10-16T07:26:04;100744.75;;;19.52;72.23
35248;BME280;21380;52.194;20.520;2022-10-16T07:28:30;100757.91;;;19.57;72.50
35248;BME280;21380;52.194;20.520;2022-10-16T07:31:03;100757.84;;;19.54;72.34
35248;BME280;21380;52.194;20.520;2022-10-16T07:33:31;100760.53;;;19.58;72.41
35248;BME280;21380;52.194;20.520;2022-10-16T07:35:57;100754.44;;;19.59;72.38
35248;BME280;21380;52.194;20.520;2022-10-16T07:38:23;100751.81;;;19.59;72.19
35248;BME280;21380;52.194;20.520;2022-10-16T07:40:56;100756.16;;;19.59;72.75
35248;BME280;21380;52.194;20.520;2022-10-16T07:43:23;100764.91;;;19.59;72.48
35248;BME280;21380;52.194;20.520;2022-10-16T07:45:50;100783.22;;;19.59;72.57
35248;BME280;21380;52.194;20.520;2022-10-16T07:48:17;100790.16;;;19.59;72.35
35248;BME280;21380;52.194;20.520;2022-10-16T07:50:44;100792.84;;;19.62;72.40
35248;BME280;21380;52.194;20.520;2022-10-16T07:53:10;100790.22;;;19.62;72.47
35248;BME280;21380;52.194;20.520;2022-10-16T07:55:37;100796.31;;;19.61;72.29
35248;BME280;21380;52.194;20.520;2022-10-16T07:58:03;100802.44;;;19.63;72.26
35248;BME280;21380;52.194;20.520;2022-10-16T08:00:30;100808.53;;;19.64;72.71
35248;BME280;21380;52.194;20.520;2022-10-16T08:02:57;100798.91;;;19.61;72.69
35248;BME280;21380;52.194;20.520;2022-10-16T08:05:31;100810.31;;;19.65;72.52
35248;BME280;21380;52.194;20.520;2022-10-16T08:07:57;100812.91;;;19.65;72.44
35248;BME280;21380;52.194;20.520;2022-10-16T08:10:25;100812.03;;;19.64;72.47
35248;BME280;21380;52.194;20.520;2022-10-16T08:12:52;100807.69;;;19.65;72.40
35248;BME280;21380;52.194;20.520;2022-10-16T08:15:19;100805.06;;;19.65;72.34
35248;BME280;21380;52.194;20.520;2022-10-16T08:17:57;100813.78;;;19.65;72.56
35248;BME280;21380;52.194;20.520;2022-10-16T08:20:25;100807.69;;;19.65;72.49
35248;BME280;21380;52.194;20.520;2022-10-16T08:22:50;100799.84;;;19.65;72.12
35248;BME280;21380;52.194;20.520;2022-10-16T08:25:16;100808.53;;;19.65;72.36
35248;BME280;21380;52.194;20.520;2022-10-16T08:27:42;100813.78;;;19.65;72.44
35248;BME280;21380;52.194;20.520;2022-10-16T08:30:11;100819.03;;;19.67;72.62
35248;BME280;21380;52.194;20.520;2022-10-16T08:32:37;100816.38;;;19.64;72.52
35248;BME280;21380;52.194;20.520;2022-10-16T08:35:03;100817.31;;;19.67;72.59
35248;BME280;21380;52.194;20.520;2022-10-16T08:37:32;100804.16;;;19.63;72.38
35248;BME280;21380;52.194;20.520;2022-10-16T08:39:59;100812.00;;;19.63;72.64
35248;BME280;21380;52.194;20.520;2022-10-16T08:45:33;100846.09;;;19.69;72.67
35248;BME280;21380;52.194;20.520;2022-10-16T08:50:33;100860.03;;;19.68;72.41
35248;BME280;21380;52.194;20.520;2022-10-16T08:53:03;100841.72;;;19.66;72.31
35248;BME280;21380;52.194;20.520;2022-10-16T08:58:00;100824.28;;;19.68;72.50
35248;BME280;21380;52.194;20.520;2022-10-16T09:00:27;100825.16;;;19.66;72.64
35248;BME280;21380;52.194;20.520;2022-10-16T09:05:54;100826.94;;;19.71;72.62
35248;BME280;21380;52.194;20.520;2022-10-16T09:08:53;100827.81;;;19.72;72.64
35248;BME280;21380;52.194;20.520;2022-10-16T09:11:53;100807.63;;;19.61;72.91
35248;BME280;21380;52.194;20.520;2022-10-16T09:20:31;100833.94;;;19.75;72.65
35248;BME280;21380;52.194;20.520;2022-10-16T09:23:13;100828.69;;;19.75;72.71
35248;BME280;21380;52.194;20.520;2022-10-16T09:25:43;100824.34;;;19.76;72.84
35248;BME280;21380;52.194;20.520;2022-10-16T09:28:10;100819.97;;;19.72;72.80
35248;BME280;21380;52.194;20.520;2022-10-16T09:30:37;100827.84;;;19.76;72.78
35248;BME280;21380;52.194;20.520;2022-10-16T09:33:04;100826.09;;;19.75;72.97
35248;BME280;21380;52.194;20.520;2022-10-16T09:38:02;100831.34;;;19.77;72.79
35248;BME280;21380;52.194;20.520;2022-10-16T09:40:32;100832.22;;;19.76;72.93
35248;BME280;21380;52.194;20.520;2022-10-16T09:46:25;100836.59;;;19.79;72.91
35248;BME280;21380;52.194;20.520;2022-10-16T09:48:54;100835.69;;;19.75;73.11
35248;BME280;21380;52.194;20.520;2022-10-16T09:51:31;100847.06;;;19.80;72.91
35248;BME280;21380;52.194;20.520;2022-10-16T09:54:00;100833.97;;;19.77;72.93
35248;BME280;21380;52.194;20.520;2022-10-16T09:58:56;100840.06;;;19.79;72.95
35248;BME280;21380;52.194;20.520;2022-10-16T10:01:30;100842.75;;;19.82;72.95
35248;BME280;21380;52.194;20.520;2022-10-16T10:03:57;100839.22;;;19.82;72.85
35248;BME280;21380;52.194;20.520;2022-10-16T10:06:31;100842.75;;;19.82;73.02
35248;BME280;21380;52.194;20.520;2022-10-16T10:09:03;100821.75;;;19.79;73.01
35248;BME280;21380;52.194;20.520;2022-10-16T10:11:43;100831.44;;;19.83;72.99
35248;BME280;21380;52.194;20.520;2022-10-16T10:19:51;100817.03;;;19.39;75.86
35248;BME280;21380;52.194;20.520;2022-10-16T10:25:07;100827.25;;;19.18;78.91
35248;BME280;21380;52.194;20.520;2022-10-16T10:31:00;100818.47;;;19.11;78.42
35248;BME280;21380;52.194;20.520;2022-10-16T10:46:45;100815.72;;;19.00;81.27
35248;BME280;21380;52.194;20.520;2022-10-16T10:55:39;100813.22;;;19.11;81.50
35248;BME280;21380;52.194;20.520;2022-10-16T11:03:55;100803.69;;;19.16;82.11
35248;BME280;21380;52.194;20.520;2022-10-16T11:06:52;100804.59;;;19.18;82.21
35248;BME280;21380;52.194;20.520;2022-10-16T11:09:27;100796.69;;;19.12;80.41
35248;BME280;21380;52.194;20.520;2022-10-16T11:11:58;100813.44;;;19.28;79.63
35248;BME280;21380;52.194;20.520;2022-10-16T11:14:32;100809.06;;;19.27;79.74
35248;BME280;21380;52.194;20.520;2022-10-16T11:19:42;100812.66;;;19.40;79.52
35248;BME280;21380;52.194;20.520;2022-10-16T11:22:15;100813.59;;;19.43;79.45
35248;BME280;21380;52.194;20.520;2022-10-16T11:25:33;100812.72;;;19.46;79.35
35248;BME280;21380;52.194;20.520;2022-10-16T11:27:41;100822.34;;;19.50;78.92
35248;BME280;21380;52.194;20.520;2022-10-16T11:30:30;100825.88;;;19.52;78.74
35248;BME280;21380;52.194;20.520;2022-10-16T11:33:00;100818.03;;;19.55;78.64
35248;BME280;21380;52.194;20.520;2022-10-16T11:35:48;100808.47;;;19.57;78.35
35248;BME280;21380;52.194;20.520;2022-10-16T11:41:34;100799.78;;;19.60;77.99
35248;BME280;21380;52.194;20.520;2022-10-16T11:49:49;100794.56;;;19.61;77.65
35248;BME280;21380;52.194;20.520;2022-10-16T11:55:27;100805.06;;;19.66;77.98
35248;BME280;21380;52.194;20.520;2022-10-16T11:58:15;100805.06;;;19.63;78.00
35248;BME280;21380;52.194;20.520;2022-10-16T12:03:41;100819.94;;;19.69;77.48
35248;BME280;21380;52.194;20.520;2022-10-16T12:08:59;100823.44;;;19.69;77.21
35248;BME280;21380;52.194;20.520;2022-10-16T12:16:50;100821.69;;;19.73;77.08
35248;BME280;21380;52.194;20.520;2022-10-16T12:19:19;100821.69;;;19.73;77.00
35248;BME280;21380;52.194;20.520;2022-10-16T12:21:47;100826.94;;;19.73;76.95
35248;BME280;21380;52.194;20.520;2022-10-16T12:24:36;100834.78;;;19.73;77.04
35248;BME280;21380;52.194;20.520;2022-10-16T12:27:06;100832.16;;;19.70;76.99
35248;BME280;21380;52.194;20.520;2022-10-16T12:29:37;100825.19;;;19.72;76.99
35248;BME280;21380;52.194;20.520;2022-10-16T12:32:06;100828.69;;;19.71;76.84
35248;BME280;21380;52.194;20.520;2022-10-16T12:34:47;100826.09;;;19.75;76.85
35248;BME280;21380;52.194;20.520;2022-10-16T12:37:28;100819.97;;;19.72;76.76
35248;BME280;21380;52.194;20.520;2022-10-16T12:39:56;100817.31;;;19.70;76.90
35248;BME280;21380;52.194;20.520;2022-10-16T12:44:53;100818.16;;;19.68;76.63
35248;BME280;21380;52.194;20.520;2022-10-16T12:49:54;100827.81;;;19.73;76.45
35248;BME280;21380;52.194;20.520;2022-10-16T12:52:39;100824.34;;;19.76;76.64
35248;BME280;21380;52.194;20.520;2022-10-16T12:55:15;100819.94;;;19.69;76.60
35248;BME280;21380;52.194;20.520;2022-10-16T12:58:04;100826.97;;;19.76;76.48
35248;BME280;21380;52.194;20.520;2022-10-16T13:05:48;100840.94;;;19.76;76.53
35248;BME280;21380;52.194;20.520;2022-10-16T13:11:39;100848.78;;;19.76;76.33
35248;BME280;21380;52.194;20.520;2022-10-16T13:20:11;100848.72;;;19.70;76.42
35248;BME280;21380;52.194;20.520;2022-10-16T13:25:28;100857.50;;;19.75;76.19
35248;BME280;21380;52.194;20.520;2022-10-16T13:28:01;100861.88;;;19.75;76.23
35248;BME280;21380;52.194;20.520;2022-10-16T13:30:34;100854.00;;;19.75;76.42
35248;BME280;21380;52.194;20.520;2022-10-16T13:33:12;100856.63;;;19.75;76.25
35248;BME280;21380;52.194;20.520;2022-10-16T13:35:56;100857.47;;;19.74;75.90
35248;BME280;21380;52.194;20.520;2022-10-16T13:38:25;100859.97;;;19.61;79.82
35248;BME280;21380;52.194;20.520;2022-10-16T13:40:56;100862.56;;;19.57;81.74
35248;BME280;21380;52.194;20.520;2022-10-16T13:43:31;100858.25;;;19.60;81.44
35248;BME280;21380;52.194;20.520;2022-10-16T13:46:04;100854.72;;;19.58;84.01
35248;BME280;21380;52.194;20.520;2022-10-16T13:48:31;100860.88;;;19.60;82.64
35248;BME280;21380;52.194;20.520;2022-10-16T13:51:15;100856.56;;;19.66;81.52
35248;BME280;21380;52.194;20.520;2022-10-16T13:53:41;100846.94;;;19.68;81.96
35248;BME280;21380;52.194;20.520;2022-10-16T13:56:17;100858.41;;;19.77;81.49
35248;BME280;21380;52.194;20.520;2022-10-16T13:58:44;100854.06;;;19.78;81.11
35248;BME280;21380;52.194;20.520;2022-10-16T14:01:22;100861.06;;;19.82;80.47
35248;BME280;21380;52.194;20.520;2022-10-16T14:03:50;100849.78;;;19.86;79.73
35248;BME280;21380;52.194;20.520;2022-10-16T14:06:19;100869.03;;;19.93;79.74
35248;BME280;21380;52.194;20.520;2022-10-16T14:08:57;100873.44;;;19.96;79.44
35248;BME280;21380;52.194;20.520;2022-10-16T14:11:25;100871.69;;;19.98;79.43
35248;BME280;21380;52.194;20.520;2022-10-16T14:13:52;100876.97;;;20.01;78.97
35248;BME280;21380;52.194;20.520;2022-10-16T14:16:21;100876.09;;;20.02;78.86
35248;BME280;21380;52.194;20.520;2022-10-16T14:19:06;100874.38;;;20.01;78.51
35248;BME280;21380;52.194;20.520;2022-10-16T14:21:33;100872.63;;;20.03;78.18
35248;BME280;21380;52.194;20.520;2022-10-16T14:24:10;100872.66;;;20.04;77.89
35248;BME280;21380;52.194;20.520;2022-10-16T14:26:44;100871.75;;;20.05;77.89
35248;BME280;21380;52.194;20.520;2022-10-16T14:29:17;100875.28;;;20.09;77.89
35248;BME280;21380;52.194;20.520;2022-10-16T14:32:21;100881.41;;;20.09;77.50
35248;BME280;21380;52.194;20.520;2022-10-16T14:34:53;100884.03;;;20.09;77.53
35248;BME280;21380;52.194;20.520;2022-10-16T14:37:31;100870.94;;;20.09;77.37
35248;BME280;21380;52.194;20.520;2022-10-16T14:39:57;100873.56;;;20.09;77.21
35248;BME280;21380;52.194;20.520;2022-10-16T14:42:24;100880.53;;;20.11;77.27
35248;BME280;21380;52.194;20.520;2022-10-16T14:44:54;100886.66;;;20.11;77.22
35248;BME280;21380;52.194;20.520;2022-10-16T14:47:24;100888.38;;;20.11;77.13
35248;BME280;21380;52.194;20.520;2022-10-16T14:49:53;100884.91;;;20.12;77.19
35248;BME280;21380;52.194;20.520;2022-10-16T14:52:21;100880.53;;;20.11;77.01
35248;BME280;21380;52.194;20.520;2022-10-16T14:54:51;100891.91;;;20.11;77.00
35248;BME280;21380;52.194;20.520;2022-10-16T14:57:27;100900.66;;;20.13;76.95
35248;BME280;21380;52.194;20.520;2022-10-16T14:59:53;100888.31;;;20.03;76.88
35248;BME280;21380;52.194;20.520;2022-10-16T15:04:48;100915.47;;;20.14;77.10
35248;BME280;21380;52.194;20.520;2022-10-16T15:07:15;100919.00;;;20.15;76.87
35248;BME280;21380;52.194;20.520;2022-10-16T15:09:41;100916.38;;;20.13;76.87
35248;BME280;21380;52.194;20.520;2022-10-16T15:12:07;100918.13;;;20.16;76.84
35248;BME280;21380;52.194;20.520;2022-10-16T15:14:33;100910.22;;;20.11;76.72